createdAt,value
2024-05-09T00:00:22.071Z,57.96
2024-05-09T00:01:15.062Z,57.98
2024-05-09T00:02:15.013Z,57.98
2024-05-09T00:03:15.056Z,58.11
2024-05-09T00:04:15.058Z,58.11
2024-05-09T00:05:15.605Z,58.11
2024-05-09T00:06:14.982Z,58.14
2024-05-09T00:07:14.932Z,58.14
2024-05-09T00:08:14.951Z,58.24
2024-05-09T00:09:14.907Z,58.17
2024-05-09T00:10:22.689Z,58.27
2024-05-09T00:11:14.942Z,58.27
2024-05-09T00:12:14.958Z,58.27
2024-05-09T00:13:14.860Z,58.29
2024-05-09T00:14:14.894Z,58.29
2024-05-09T00:15:14.824Z,58.40
2024-05-09T00:16:14.824Z,58.33
2024-05-09T00:17:14.850Z,58.33
2024-05-09T00:18:14.952Z,58.33
2024-05-09T00:19:15.748Z,58.42
2024-05-09T00:20:20.528Z,58.42
2024-05-09T00:21:14.763Z,58.42
2024-05-09T00:22:14.740Z,58.29
2024-05-09T00:23:15.666Z,58.20
2024-05-09T00:24:15.605Z,58.20
2024-05-09T00:25:15.603Z,58.09
2024-05-09T00:26:14.852Z,58.06
2024-05-09T00:27:14.773Z,57.97
2024-05-09T00:28:14.709Z,57.86
2024-05-09T00:29:15.590Z,57.86
2024-05-09T00:30:21.545Z,57.73
2024-05-09T00:31:14.595Z,57.73
2024-05-09T00:32:15.348Z,57.64
2024-05-09T00:33:14.813Z,57.64
2024-05-09T00:34:14.614Z,57.60
2024-05-09T00:35:14.566Z,57.60
2024-05-09T00:36:14.527Z,57.60
2024-05-09T00:37:14.538Z,57.50
2024-05-09T00:38:14.542Z,57.50
2024-05-09T00:39:14.504Z,57.48
2024-05-09T00:40:22.476Z,57.37
2024-05-09T00:41:16.341Z,57.48
2024-05-09T00:42:14.453Z,57.37
2024-05-09T00:43:15.308Z,57.37
2024-05-09T00:44:14.513Z,57.37
2024-05-09T00:45:14.404Z,57.37
2024-05-09T00:46:14.435Z,57.35
2024-05-09T00:47:14.543Z,57.35
2024-05-09T00:48:17.379Z,57.35
2024-05-09T00:49:14.494Z,57.35
2024-05-09T00:50:19.382Z,57.35
2024-05-09T00:51:14.514Z,57.35
2024-05-09T00:52:14.325Z,57.35
2024-05-09T00:53:14.619Z,57.24
2024-05-09T00:54:14.277Z,57.35
2024-05-09T00:55:14.294Z,57.32
2024-05-09T00:56:14.883Z,57.32
2024-05-09T00:57:14.251Z,57.32
2024-05-09T00:58:14.238Z,57.32
2024-05-09T00:59:14.246Z,57.32
2024-05-09T01:00:22.655Z,57.22
2024-05-09T01:01:14.225Z,57.22
2024-05-09T01:02:14.306Z,57.22
2024-05-09T01:03:14.696Z,57.32
2024-05-09T01:04:14.167Z,57.22
2024-05-09T01:05:14.279Z,57.32
2024-05-09T01:06:14.129Z,57.32
2024-05-09T01:07:15.023Z,57.32
2024-05-09T01:08:14.132Z,57.32
2024-05-09T01:09:14.126Z,57.22
2024-05-09T01:10:20.930Z,57.22
2024-05-09T01:11:14.119Z,57.32
2024-05-09T01:12:15.176Z,57.32
2024-05-09T01:13:19.023Z,57.29
2024-05-09T01:14:14.055Z,57.29
2024-05-09T01:15:14.087Z,57.29
2024-05-09T01:16:14.000Z,57.29
2024-05-09T01:17:14.067Z,57.29
2024-05-09T01:18:16.667Z,57.29
2024-05-09T01:19:14.688Z,57.29
2024-05-09T01:20:20.154Z,57.29
2024-05-09T01:21:14.332Z,57.20
2024-05-09T01:22:13.990Z,57.22
2024-05-09T01:23:16.221Z,57.32
2024-05-09T01:24:13.892Z,57.45
2024-05-09T01:25:14.852Z,57.55
2024-05-09T01:26:13.883Z,57.65
2024-05-09T01:27:14.016Z,57.68
2024-05-09T01:28:13.891Z,57.78
2024-05-09T01:29:14.388Z,57.78
2024-05-09T01:30:17.440Z,57.81
2024-05-09T01:31:13.808Z,57.91
2024-05-09T01:32:13.868Z,57.91
2024-05-09T01:33:14.338Z,57.91
2024-05-09T01:34:13.843Z,57.91
2024-05-09T01:35:13.799Z,58.01
2024-05-09T01:36:13.708Z,58.01
2024-05-09T01:37:13.744Z,58.01
2024-05-09T01:38:14.233Z,57.91
2024-05-09T01:39:13.725Z,57.93
2024-05-09T01:40:18.545Z,57.93
2024-05-09T01:41:13.661Z,57.93
2024-05-09T01:42:13.653Z,57.93
2024-05-09T01:43:13.636Z,58.06
2024-05-09T01:44:13.680Z,58.06
2024-05-09T01:45:13.647Z,58.06
2024-05-09T01:46:13.626Z,58.06
2024-05-09T01:47:13.644Z,58.06
2024-05-09T01:48:13.736Z,58.06
2024-05-09T01:49:13.736Z,58.06
2024-05-09T01:50:16.577Z,58.06
2024-05-09T01:51:13.605Z,57.93
2024-05-09T01:52:13.514Z,57.93
2024-05-09T01:53:14.373Z,57.84
2024-05-09T01:54:13.496Z,57.84
2024-05-09T01:55:13.511Z,57.84
2024-05-09T01:56:13.557Z,57.71
2024-05-09T01:57:13.429Z,57.71
2024-05-09T01:58:14.068Z,57.60
2024-05-09T01:59:13.432Z,57.58
2024-05-09T02:00:18.819Z,57.58
2024-05-09T02:01:14.349Z,57.58
2024-05-09T02:02:13.581Z,57.48
2024-05-09T02:03:16.224Z,57.48
2024-05-09T02:04:13.479Z,57.48
2024-05-09T02:05:13.445Z,57.45
2024-05-09T02:06:13.349Z,57.45
2024-05-09T02:07:13.300Z,57.45
2024-05-09T02:08:13.378Z,57.35
2024-05-09T02:09:13.274Z,57.45
2024-05-09T02:10:20.191Z,57.35
2024-05-09T02:11:13.467Z,57.35
2024-05-09T02:12:13.387Z,57.35
2024-05-09T02:13:13.230Z,57.35
2024-05-09T02:14:13.250Z,57.35
2024-05-09T02:15:13.198Z,57.32
2024-05-09T02:16:13.175Z,57.32
2024-05-09T02:17:14.993Z,57.32
2024-05-09T02:18:13.736Z,57.32
2024-05-09T02:19:13.305Z,57.32
2024-05-09T02:20:18.964Z,57.32
2024-05-09T02:21:13.242Z,57.32
2024-05-09T02:22:13.101Z,57.32
2024-05-09T02:23:13.198Z,57.32
2024-05-09T02:24:13.070Z,57.32
2024-05-09T02:25:13.090Z,57.32
2024-05-09T02:26:13.151Z,57.32
2024-05-09T02:27:13.029Z,57.32
2024-05-09T02:28:13.007Z,57.32
2024-05-09T02:29:13.028Z,57.29
2024-05-09T02:30:19.071Z,57.29
2024-05-09T02:31:12.981Z,57.29
2024-05-09T02:32:13.072Z,57.29
2024-05-09T02:33:14.383Z,57.40
2024-05-09T02:34:13.118Z,57.29
2024-05-09T02:35:12.977Z,57.29
2024-05-09T02:36:12.907Z,57.29
2024-05-09T02:37:12.958Z,57.40
2024-05-09T02:38:13.526Z,57.40
2024-05-09T02:39:12.867Z,57.29
2024-05-09T02:40:14.983Z,57.40
2024-05-09T02:41:12.954Z,57.40
2024-05-09T02:42:12.822Z,57.29
2024-05-09T02:43:13.305Z,57.40
2024-05-09T02:44:12.802Z,57.29
2024-05-09T02:45:12.792Z,57.40
2024-05-09T02:46:12.762Z,57.29
2024-05-09T02:47:12.985Z,57.29
2024-05-09T02:48:13.705Z,57.29
2024-05-09T02:49:12.807Z,57.29
2024-05-09T02:50:16.213Z,57.29
2024-05-09T02:51:12.712Z,57.29
2024-05-09T02:52:12.700Z,57.29
2024-05-09T02:53:13.134Z,57.20
2024-05-09T02:54:12.670Z,57.22
2024-05-09T02:55:12.652Z,57.45
2024-05-09T02:56:12.694Z,57.45
2024-05-09T02:57:12.726Z,57.58
2024-05-09T02:58:12.643Z,57.81
2024-05-09T02:59:12.612Z,57.81
2024-05-09T03:00:19.007Z,58.04
2024-05-09T03:01:12.631Z,58.04
2024-05-09T03:02:12.631Z,58.06
2024-05-09T03:03:14.657Z,58.20
2024-05-09T03:04:12.560Z,58.29
2024-05-09T03:05:12.542Z,58.29
2024-05-09T03:06:12.495Z,58.33
2024-05-09T03:07:12.494Z,58.33
2024-05-09T03:08:12.750Z,58.33
2024-05-09T03:09:12.516Z,58.33
2024-05-09T03:10:18.582Z,58.22
2024-05-09T03:11:12.582Z,58.25
2024-05-09T03:12:12.664Z,58.25
2024-05-09T03:13:13.537Z,58.25
2024-05-09T03:14:12.422Z,58.25
2024-05-09T03:15:12.386Z,58.25
2024-05-09T03:16:12.400Z,58.28
2024-05-09T03:17:12.383Z,58.28
2024-05-09T03:18:12.937Z,58.28
2024-05-09T03:19:12.801Z,58.28
2024-05-09T03:20:20.355Z,58.28
2024-05-09T03:21:12.354Z,58.17
2024-05-09T03:22:12.290Z,58.28
2024-05-09T03:23:12.504Z,58.28
2024-05-09T03:24:12.249Z,58.17
2024-05-09T03:25:12.243Z,58.07
2024-05-09T03:26:12.346Z,58.04
2024-05-09T03:27:14.417Z,58.04
2024-05-09T03:28:12.207Z,57.95
2024-05-09T03:29:13.154Z,57.81
2024-05-09T03:31:12.159Z,57.71
2024-05-09T03:32:12.363Z,57.68
2024-05-09T03:33:13.604Z,57.59
2024-05-09T03:34:12.336Z,57.48
2024-05-09T03:35:13.021Z,57.48
2024-05-09T03:36:13.036Z,57.46
2024-05-09T03:37:12.147Z,57.46
2024-05-09T03:38:12.408Z,57.35
2024-05-09T03:39:12.144Z,57.35
2024-05-09T03:40:20.404Z,57.35
2024-05-09T03:41:12.139Z,57.35
2024-05-09T03:42:12.150Z,57.23
2024-05-09T03:43:12.126Z,57.23
2024-05-09T03:44:12.066Z,57.23
2024-05-09T03:45:11.994Z,57.23
2024-05-09T03:46:11.956Z,57.23
2024-05-09T03:47:12.171Z,57.12
2024-05-09T03:48:12.247Z,57.12
2024-05-09T03:49:12.116Z,57.10
2024-05-09T03:50:18.362Z,57.10
2024-05-09T03:51:12.128Z,57.10
2024-05-09T03:52:11.875Z,56.99
2024-05-09T03:53:11.921Z,56.99
2024-05-09T03:54:11.893Z,56.99
2024-05-09T03:55:11.840Z,56.97
2024-05-09T03:56:12.785Z,56.97
2024-05-09T03:57:11.841Z,56.87
2024-05-09T03:58:11.799Z,56.87
2024-05-09T03:59:11.855Z,56.87
2024-05-09T04:00:17.914Z,56.84
2024-05-09T04:01:11.819Z,56.84
2024-05-09T04:02:11.886Z,56.84
2024-05-09T04:03:13.147Z,56.84
2024-05-09T04:04:11.781Z,56.84
2024-05-09T04:05:11.765Z,56.74
2024-05-09T04:06:11.720Z,56.84
2024-05-09T04:07:11.679Z,56.71
2024-05-09T04:08:11.915Z,56.82
2024-05-09T04:09:11.664Z,56.82
2024-05-09T04:10:20.925Z,56.71
2024-05-09T04:11:12.721Z,56.71
2024-05-09T04:12:11.649Z,56.71
2024-05-09T04:13:11.583Z,56.61
2024-05-09T04:14:11.632Z,56.61
2024-05-09T04:15:13.616Z,56.61
2024-05-09T04:16:11.552Z,56.61
2024-05-09T04:17:12.552Z,56.61
2024-05-09T04:18:11.571Z,56.51
2024-05-09T04:19:11.679Z,56.64
2024-05-09T04:20:21.113Z,56.74
2024-05-09T04:21:11.568Z,56.84
2024-05-09T04:22:11.506Z,56.97
2024-05-09T04:23:11.931Z,56.97
2024-05-09T04:24:11.464Z,57.10
2024-05-09T04:25:12.285Z,57.10
2024-05-09T04:26:11.484Z,57.10
2024-05-09T04:27:11.479Z,57.12
2024-05-09T04:28:11.382Z,57.12
2024-05-09T04:29:11.454Z,57.12
2024-05-09T04:30:18.884Z,57.12
2024-05-09T04:31:11.347Z,57.12
2024-05-09T04:32:11.394Z,57.12
2024-05-09T04:33:13.355Z,57.12
2024-05-09T04:34:11.363Z,57.12
2024-05-09T04:35:11.308Z,57.12
2024-05-09T04:36:11.343Z,57.03
2024-05-09T04:37:11.919Z,57.03
2024-05-09T04:38:12.025Z,57.03
2024-05-09T04:39:11.278Z,57.03
2024-05-09T04:40:20.942Z,56.92
2024-05-09T04:41:11.290Z,56.90
2024-05-09T04:42:11.203Z,56.90
2024-05-09T04:43:11.209Z,56.90
2024-05-09T04:44:11.280Z,56.79
2024-05-09T04:45:11.212Z,56.79
2024-05-09T04:46:11.139Z,56.67
2024-05-09T04:47:11.250Z,56.67
2024-05-09T04:48:11.596Z,56.67
2024-05-09T04:49:11.279Z,56.57
2024-05-09T04:50:14.564Z,56.57
2024-05-09T04:51:11.190Z,56.54
2024-05-09T04:52:11.059Z,56.54
2024-05-09T04:53:11.673Z,56.54
2024-05-09T04:54:22.102Z,56.44
2024-05-09T04:55:11.036Z,56.41
2024-05-09T04:56:12.057Z,56.31
2024-05-09T04:57:11.020Z,56.31
2024-05-09T04:58:10.986Z,56.18
2024-05-09T04:59:10.992Z,56.18
2024-05-09T05:00:14.901Z,56.05
2024-05-09T05:01:11.098Z,56.05
2024-05-09T05:02:11.990Z,56.02
2024-05-09T05:03:13.636Z,55.93
2024-05-09T05:04:10.991Z,55.93
2024-05-09T05:05:12.140Z,55.80
2024-05-09T05:06:10.931Z,55.80
2024-05-09T05:07:10.884Z,55.67
2024-05-09T05:08:10.869Z,55.67
2024-05-09T05:09:10.873Z,55.57
2024-05-09T05:10:15.028Z,55.54
2024-05-09T05:11:10.928Z,55.44
2024-05-09T05:12:10.951Z,55.44
2024-05-09T05:13:10.775Z,55.41
2024-05-09T05:14:10.836Z,55.32
2024-05-09T05:15:10.762Z,55.29
2024-05-09T05:16:10.758Z,55.29
2024-05-09T05:17:11.430Z,55.29
2024-05-09T05:18:11.445Z,55.16
2024-05-09T05:19:13.519Z,55.16
2024-05-09T05:20:15.204Z,55.06
2024-05-09T05:21:10.727Z,55.04
2024-05-09T05:22:11.418Z,55.04
2024-05-09T05:23:10.684Z,54.91
2024-05-09T05:24:10.631Z,54.81
2024-05-09T05:25:10.630Z,54.79
2024-05-09T05:26:10.635Z,54.68
2024-05-09T05:27:10.622Z,54.55
2024-05-09T05:28:10.718Z,54.35
2024-05-09T05:29:10.612Z,54.23
2024-05-09T05:30:17.558Z,54.00
2024-05-09T05:31:10.575Z,53.67
2024-05-09T05:32:11.525Z,53.47
2024-05-09T05:33:10.656Z,53.25
2024-05-09T05:34:11.413Z,53.02
2024-05-09T05:35:10.639Z,52.80
2024-05-09T05:36:11.244Z,53.00
2024-05-09T05:37:12.380Z,52.77
2024-05-09T05:38:10.601Z,52.87
2024-05-09T05:39:10.462Z,52.87
2024-05-09T05:40:14.619Z,52.84
2024-05-09T05:41:10.477Z,52.75
2024-05-09T05:42:10.374Z,52.84
2024-05-09T05:43:10.884Z,52.94
2024-05-09T05:44:10.424Z,53.02
2024-05-09T05:45:10.378Z,53.02
2024-05-09T05:46:10.334Z,52.92
2024-05-09T05:47:10.394Z,52.89
2024-05-09T05:48:10.423Z,52.89
2024-05-09T05:49:10.538Z,53.00
2024-05-09T05:50:20.700Z,53.00
2024-05-09T05:51:10.356Z,52.89
2024-05-09T05:52:10.250Z,52.87
2024-05-09T05:53:10.734Z,52.77
2024-05-09T05:54:10.210Z,52.77
2024-05-09T05:55:10.219Z,52.77
2024-05-09T05:56:10.258Z,52.87
2024-05-09T05:57:10.226Z,52.84
2024-05-09T05:58:10.177Z,52.94
2024-05-09T05:59:12.011Z,53.05
2024-05-09T06:00:15.122Z,53.14
2024-05-09T06:01:10.251Z,53.05
2024-05-09T06:02:10.976Z,53.17
2024-05-09T06:03:10.972Z,53.17
2024-05-09T06:04:10.214Z,53.27
2024-05-09T06:05:10.247Z,53.39
2024-05-09T06:06:10.134Z,53.39
2024-05-09T06:07:10.116Z,53.39
2024-05-09T06:08:10.895Z,53.50
2024-05-09T06:09:10.995Z,53.39
2024-05-09T06:10:17.360Z,53.52
2024-05-09T06:11:10.981Z,53.62
2024-05-09T06:12:11.921Z,53.52
2024-05-09T06:13:11.541Z,53.52
2024-05-09T06:14:09.977Z,53.52
2024-05-09T06:15:10.091Z,53.55
2024-05-09T06:16:09.938Z,53.45
2024-05-09T06:17:10.234Z,53.45
2024-05-09T06:18:11.275Z,53.34
2024-05-09T06:19:09.968Z,53.22
2024-05-09T06:20:20.097Z,52.92
2024-05-09T06:21:10.739Z,52.69
2024-05-09T06:22:10.467Z,52.59
2024-05-09T06:23:10.517Z,52.39
2024-05-09T06:24:09.843Z,52.17
2024-05-09T06:25:09.826Z,52.07
2024-05-09T06:26:09.892Z,52.07
2024-05-09T06:27:09.772Z,51.97
2024-05-09T06:28:09.788Z,52.07
2024-05-09T06:29:09.773Z,52.27
2024-05-09T06:30:14.455Z,52.37
2024-05-09T06:31:09.726Z,52.47
2024-05-09T06:32:09.803Z,52.37
2024-05-09T06:33:11.176Z,52.24
2024-05-09T06:34:09.885Z,52.12
2024-05-09T06:35:09.793Z,52.02
2024-05-09T06:36:09.677Z,51.79
2024-05-09T06:37:09.654Z,51.79
2024-05-09T06:38:09.980Z,51.67
2024-05-09T06:39:09.609Z,51.67
2024-05-09T06:40:09.976Z,51.64
2024-05-09T06:41:09.638Z,51.84
2024-05-09T06:42:09.608Z,51.94
2024-05-09T06:43:09.563Z,51.94
2024-05-09T06:44:09.577Z,51.82
2024-05-09T06:45:10.461Z,51.59
2024-05-09T06:46:09.533Z,51.40
2024-05-09T06:47:09.650Z,51.27
2024-05-09T06:48:11.700Z,51.27
2024-05-09T06:49:09.639Z,51.25
2024-05-09T06:50:19.589Z,51.35
2024-05-09T06:51:09.606Z,51.35
2024-05-09T06:52:09.434Z,51.32
2024-05-09T06:53:09.851Z,51.22
2024-05-09T06:54:09.443Z,51.22
2024-05-09T06:55:09.397Z,51.29
2024-05-09T06:56:09.991Z,51.10
2024-05-09T06:57:09.368Z,50.68
2024-05-09T06:58:09.656Z,50.68
2024-05-09T06:59:09.377Z,50.87
2024-05-09T07:00:15.487Z,50.98
2024-05-09T07:01:09.428Z,51.17
2024-05-09T07:02:09.383Z,51.50
2024-05-09T07:03:09.961Z,51.70
2024-05-09T07:04:09.597Z,51.79
2024-05-09T07:05:09.340Z,51.89
2024-05-09T07:06:09.316Z,52.00
2024-05-09T07:07:09.249Z,51.97
2024-05-09T07:08:09.398Z,51.97
2024-05-09T07:09:09.214Z,52.07
2024-05-09T07:10:17.766Z,52.07
2024-05-09T07:11:09.281Z,52.17
2024-05-09T07:12:10.479Z,52.27
2024-05-09T07:13:09.145Z,52.27
2024-05-09T07:14:09.177Z,52.27
2024-05-09T07:15:09.131Z,52.27
2024-05-09T07:16:10.889Z,52.27
2024-05-09T07:17:09.345Z,52.27
2024-05-09T07:18:09.379Z,52.17
2024-05-09T07:19:09.395Z,52.37
2024-05-09T07:20:11.775Z,52.24
2024-05-09T07:21:09.065Z,52.04
2024-05-09T07:22:09.027Z,51.95
2024-05-09T07:23:09.103Z,51.95
2024-05-09T07:24:09.053Z,51.95
2024-05-09T07:25:09.019Z,51.82
2024-05-09T07:26:09.088Z,51.72
2024-05-09T07:27:08.985Z,51.92
2024-05-09T07:28:10.862Z,51.82
2024-05-09T07:29:10.746Z,51.79
2024-05-09T07:30:11.555Z,51.70
2024-05-09T07:31:08.942Z,51.47
2024-05-09T07:32:08.959Z,51.57
2024-05-09T07:33:09.161Z,51.35
2024-05-09T07:34:08.928Z,51.45
2024-05-09T07:35:08.884Z,51.03
2024-05-09T07:36:08.868Z,51.03
2024-05-09T07:37:08.842Z,51.25
2024-05-09T07:38:08.884Z,51.54
2024-05-09T07:39:08.805Z,51.77
2024-05-09T07:40:12.004Z,51.87
2024-05-09T07:41:08.791Z,51.87
2024-05-09T07:42:08.832Z,51.54
2024-05-09T07:43:08.778Z,51.35
2024-05-09T07:44:08.748Z,51.25
2024-05-09T07:45:29.581Z,50.83
2024-05-09T07:47:13.780Z,50.60
2024-05-09T07:50:34.101Z,50.31
2024-05-09T07:53:32.465Z,50.60
2024-05-09T07:53:49.488Z,50.70
2024-05-09T07:54:00.532Z,50.48
2024-05-09T07:54:56.458Z,50.48
2024-05-09T07:55:56.855Z,50.58
2024-05-09T07:56:56.445Z,50.48
2024-05-09T07:57:56.369Z,50.26
2024-05-09T07:58:56.413Z,49.84
2024-05-09T07:59:56.833Z,48.97
2024-05-09T08:00:57.538Z,48.65
2024-05-09T08:01:56.183Z,48.33
2024-05-09T08:02:58.887Z,48.31
2024-05-09T08:03:56.420Z,47.35
2024-05-09T08:04:57.965Z,45.56
2024-05-09T08:05:56.035Z,45.32
2024-05-09T08:06:56.063Z,45.10
2024-05-09T08:07:56.882Z,45.30
2024-05-09T08:08:56.873Z,45.18
2024-05-09T08:09:56.049Z,43.92
2024-05-09T08:10:56.715Z,41.67
2024-05-09T08:11:55.977Z,36.70
2024-05-09T08:12:55.951Z,34.11
2024-05-09T08:13:55.866Z,32.86
2024-05-09T08:14:55.839Z,33.66
2024-05-09T08:15:55.956Z,34.88
2024-05-09T08:16:55.866Z,36.82
2024-05-09T08:17:56.384Z,38.78
2024-05-09T08:18:55.982Z,39.90
2024-05-09T08:19:55.791Z,41.14
2024-05-09T08:20:55.764Z,42.08
2024-05-09T08:21:55.816Z,40.72
2024-05-09T08:22:56.901Z,36.57
2024-05-09T08:23:55.725Z,33.61
2024-05-09T08:24:55.788Z,32.44
2024-05-09T08:25:55.747Z,31.39
2024-05-09T08:26:56.332Z,30.23
2024-05-09T08:27:56.982Z,29.07
2024-05-09T08:28:56.864Z,28.23
2024-05-09T08:29:55.705Z,27.69
2024-05-09T08:30:55.763Z,27.24
2024-05-09T08:31:55.736Z,27.21
2024-05-09T08:32:55.794Z,27.08
2024-05-09T08:33:55.816Z,27.25
2024-05-09T08:34:56.183Z,27.11
2024-05-09T08:35:55.572Z,26.90
2024-05-09T08:36:57.725Z,26.76
2024-05-09T08:37:56.050Z,26.63
2024-05-09T08:38:56.355Z,26.51
2024-05-09T08:39:56.541Z,26.68
2024-05-09T08:40:56.453Z,26.46
2024-05-09T08:41:56.424Z,26.32
2024-05-09T08:42:56.545Z,26.20
2024-05-09T08:43:56.442Z,26.09
2024-05-09T08:44:56.372Z,25.96
2024-05-09T08:45:56.479Z,25.74
2024-05-09T08:46:56.877Z,25.71
2024-05-09T08:47:56.398Z,25.70
2024-05-09T08:48:56.115Z,25.58
2024-05-09T08:49:55.460Z,25.87
2024-05-09T08:50:55.424Z,27.98
2024-05-09T08:51:55.376Z,30.70
2024-05-09T08:52:55.382Z,32.62
2024-05-09T08:53:55.374Z,34.86
2024-05-09T08:54:55.383Z,35.71
2024-05-09T08:55:55.301Z,36.12
2024-05-09T08:56:55.819Z,34.22
2024-05-09T08:57:55.362Z,31.31
2024-05-09T08:58:55.259Z,30.81
2024-05-09T08:59:55.279Z,30.31
2024-05-09T09:00:56.025Z,28.89
2024-05-09T09:01:55.386Z,28.08
2024-05-09T09:02:55.321Z,28.79
2024-05-09T09:03:55.400Z,27.87
2024-05-09T09:04:55.260Z,27.37
2024-05-09T09:05:55.194Z,27.06
2024-05-09T09:06:57.715Z,26.85
2024-05-09T09:07:55.213Z,26.75
2024-05-09T09:08:56.423Z,26.53
2024-05-09T09:09:55.170Z,26.52
2024-05-09T09:10:55.887Z,26.41
2024-05-09T09:11:55.267Z,26.31
2024-05-09T09:12:55.132Z,27.21
2024-05-09T09:13:55.094Z,27.21
2024-05-09T09:14:56.826Z,26.79
2024-05-09T09:15:55.106Z,26.49
2024-05-09T09:16:55.042Z,26.39
2024-05-09T09:17:55.073Z,26.28
2024-05-09T09:18:55.244Z,26.17
2024-05-09T09:19:55.083Z,26.15
2024-05-09T09:20:55.182Z,26.04
2024-05-09T09:21:55.005Z,25.93
2024-05-09T09:22:54.982Z,26.33
2024-05-09T09:23:55.363Z,26.14
2024-05-09T09:24:54.970Z,26.01
2024-05-09T09:25:54.916Z,25.92
2024-05-09T09:26:54.967Z,25.91
2024-05-09T09:27:55.022Z,25.91
2024-05-09T09:28:54.891Z,25.90
2024-05-09T09:29:54.906Z,25.89
2024-05-09T09:30:54.897Z,25.79
2024-05-09T09:31:54.856Z,25.79
2024-05-09T09:32:54.878Z,25.81
2024-05-09T09:33:55.145Z,25.90
2024-05-09T09:34:55.763Z,25.91
2024-05-09T09:35:54.798Z,25.91
2024-05-09T09:36:54.826Z,26.00
2024-05-09T09:37:54.870Z,25.90
2024-05-09T09:38:54.805Z,25.89
2024-05-09T09:39:55.375Z,25.89
2024-05-09T09:40:54.819Z,25.78
2024-05-09T09:41:54.718Z,25.76
2024-05-09T09:42:55.586Z,25.67
2024-05-09T09:43:54.777Z,25.66
2024-05-09T09:45:03.734Z,25.57
2024-05-09T09:45:54.803Z,25.66
2024-05-09T09:46:54.759Z,25.57
2024-05-09T09:47:54.731Z,25.56
2024-05-09T09:48:54.777Z,25.56
2024-05-09T09:49:54.722Z,25.87
2024-05-09T09:50:54.648Z,26.86
2024-05-09T09:51:54.679Z,27.25
2024-05-09T09:52:54.597Z,26.86
2024-05-09T09:53:54.603Z,26.66
2024-05-09T09:54:54.811Z,26.26
2024-05-09T09:55:54.557Z,26.07
2024-05-09T09:56:54.560Z,25.87
2024-05-09T09:57:54.573Z,25.87
2024-05-09T09:58:54.546Z,25.76
2024-05-09T09:59:54.530Z,25.76
2024-05-09T10:00:54.681Z,25.66
2024-05-09T10:01:54.535Z,25.75
2024-05-09T10:02:54.502Z,25.65
2024-05-09T10:03:55.515Z,25.56
2024-05-09T10:04:54.966Z,25.56
2024-05-09T10:05:54.494Z,25.56
2024-05-09T10:06:54.890Z,25.56
2024-05-09T10:07:54.427Z,25.45
2024-05-09T10:08:54.420Z,25.45
2024-05-09T10:09:54.429Z,25.43
2024-05-09T10:10:55.122Z,25.42
2024-05-09T10:11:59.891Z,25.33
2024-05-09T10:12:54.440Z,25.32
2024-05-09T10:13:55.308Z,25.32
2024-05-09T10:14:54.373Z,25.31
2024-05-09T10:15:54.758Z,25.21
2024-05-09T10:16:56.314Z,25.21
2024-05-09T10:17:54.419Z,25.31
2024-05-09T10:18:54.516Z,25.32
2024-05-09T10:19:54.324Z,25.32
2024-05-09T10:20:54.945Z,25.32
2024-05-09T10:21:54.979Z,25.32
2024-05-09T10:22:54.275Z,25.32
2024-05-09T10:23:54.251Z,25.32
2024-05-09T10:24:55.245Z,25.32
2024-05-09T10:25:54.256Z,25.32
2024-05-09T10:26:54.930Z,25.32
2024-05-09T10:27:54.983Z,25.32
2024-05-09T10:28:54.846Z,25.32
2024-05-09T10:29:54.926Z,25.31
2024-05-09T10:30:54.952Z,25.32
2024-05-09T10:31:54.168Z,25.31
2024-05-09T10:32:54.289Z,25.32
2024-05-09T10:33:54.559Z,25.31
2024-05-09T10:34:54.798Z,25.31
2024-05-09T10:35:54.818Z,25.31
2024-05-09T10:36:54.183Z,25.31
2024-05-09T10:37:54.066Z,25.21
2024-05-09T10:38:54.039Z,25.32
2024-05-09T10:39:54.087Z,25.32
2024-05-09T10:40:54.860Z,25.33
2024-05-09T10:41:54.019Z,25.33
2024-05-09T10:42:54.165Z,25.33
2024-05-09T10:43:53.999Z,25.34
2024-05-09T10:44:53.973Z,25.45
2024-05-09T10:45:53.992Z,25.54
2024-05-09T10:46:54.006Z,25.56
2024-05-09T10:47:54.078Z,25.57
2024-05-09T10:48:54.074Z,25.58
2024-05-09T10:49:54.027Z,25.68
2024-05-09T10:50:53.904Z,25.70
2024-05-09T10:51:54.460Z,25.70
2024-05-09T10:52:53.915Z,25.70
2024-05-09T10:53:53.921Z,25.79
2024-05-09T10:54:53.912Z,25.70
2024-05-09T10:55:53.852Z,25.60
2024-05-09T10:56:53.875Z,25.59
2024-05-09T10:57:53.887Z,25.59
2024-05-09T10:58:54.800Z,25.59
2024-05-09T10:59:53.799Z,25.59
2024-05-09T11:00:54.931Z,25.50
2024-05-09T11:01:53.848Z,25.51
2024-05-09T11:02:53.852Z,25.51
2024-05-09T11:03:54.015Z,25.51
2024-05-09T11:04:53.936Z,25.51
2024-05-09T11:05:53.828Z,25.42
2024-05-09T11:06:53.796Z,25.53
2024-05-09T11:07:53.726Z,25.53
2024-05-09T11:08:53.718Z,25.63
2024-05-09T11:09:53.780Z,25.65
2024-05-09T11:10:53.769Z,25.75
2024-05-09T11:11:53.696Z,25.75
2024-05-09T11:12:53.714Z,25.76
2024-05-09T11:13:53.635Z,25.87
2024-05-09T11:14:53.665Z,25.89
2024-05-09T11:15:54.467Z,25.99
2024-05-09T11:16:53.646Z,26.09
2024-05-09T11:17:53.645Z,26.11
2024-05-09T11:18:53.702Z,28.14
2024-05-09T11:19:53.617Z,29.44
2024-05-09T11:20:53.589Z,28.37
2024-05-09T11:21:53.593Z,27.91
2024-05-09T11:22:53.561Z,27.92
2024-05-09T11:23:53.533Z,28.14
2024-05-09T11:24:53.629Z,28.55
2024-05-09T11:25:53.554Z,29.19
2024-05-09T11:26:53.534Z,30.10
2024-05-09T11:27:53.581Z,31.01
2024-05-09T11:28:53.466Z,32.03
2024-05-09T11:29:53.487Z,33.06
2024-05-09T11:30:53.494Z,34.09
2024-05-09T11:31:53.866Z,35.11
2024-05-09T11:32:54.571Z,36.13
2024-05-09T11:33:53.525Z,37.15
2024-05-09T11:34:53.845Z,37.99
2024-05-09T11:35:55.322Z,38.71
2024-05-09T11:36:53.432Z,39.45
2024-05-09T11:37:53.454Z,40.29
2024-05-09T11:38:53.317Z,41.02
2024-05-09T11:39:53.518Z,41.76
2024-05-09T11:40:53.519Z,42.40
2024-05-09T11:41:53.328Z,42.94
2024-05-09T11:42:53.652Z,43.47
2024-05-09T11:43:53.259Z,43.90
2024-05-09T11:44:53.898Z,44.23
2024-05-09T11:45:53.271Z,44.59
2024-05-09T11:46:53.251Z,44.92
2024-05-09T11:47:53.451Z,45.14
2024-05-09T11:48:53.478Z,45.38
2024-05-09T11:49:53.253Z,45.62
2024-05-09T11:50:53.249Z,45.86
2024-05-09T11:51:53.312Z,46.08
2024-05-09T11:52:53.169Z,46.22
2024-05-09T11:53:53.138Z,46.34
2024-05-09T11:54:53.206Z,46.46
2024-05-09T11:55:53.141Z,46.58
2024-05-09T11:56:53.170Z,46.62
2024-05-09T11:57:53.336Z,46.75
2024-05-09T11:58:53.105Z,46.75
2024-05-09T11:59:53.100Z,46.86
2024-05-09T12:00:53.180Z,46.89
2024-05-09T12:01:53.217Z,46.91
2024-05-09T12:02:53.032Z,46.94
2024-05-09T12:03:53.206Z,46.95
2024-05-09T12:04:53.614Z,46.98
2024-05-09T12:05:53.003Z,46.98
2024-05-09T12:06:53.049Z,47.00
2024-05-09T12:07:52.949Z,47.00
2024-05-09T12:08:52.946Z,46.93
2024-05-09T12:09:52.983Z,46.95
2024-05-09T12:10:53.277Z,46.95
2024-05-09T12:11:53.813Z,46.97
2024-05-09T12:12:52.929Z,46.90
2024-05-09T12:13:52.896Z,46.90
2024-05-09T12:14:52.896Z,46.92
2024-05-09T12:15:52.880Z,46.92
2024-05-09T12:16:52.918Z,46.94
2024-05-09T12:17:53.003Z,46.94
2024-05-09T12:18:52.953Z,46.87
2024-05-09T12:19:52.804Z,46.87
2024-05-09T12:20:52.775Z,46.89
2024-05-09T12:21:52.839Z,46.89
2024-05-09T12:22:52.803Z,46.81
2024-05-09T12:23:52.731Z,46.81
2024-05-09T12:24:52.769Z,46.72
2024-05-09T12:25:52.717Z,46.74
2024-05-09T12:26:52.736Z,46.64
2024-05-09T12:27:52.733Z,46.66
2024-05-09T12:28:52.678Z,46.66
2024-05-09T12:29:52.656Z,46.69
2024-05-09T12:30:53.340Z,46.59
2024-05-09T12:31:52.658Z,46.61
2024-05-09T12:32:52.828Z,46.61
2024-05-09T12:33:52.684Z,46.63
2024-05-09T12:34:53.752Z,46.66
2024-05-09T12:35:52.577Z,46.67
2024-05-09T12:36:52.635Z,46.70
2024-05-09T12:37:52.550Z,46.82
2024-05-09T12:38:52.592Z,46.94
2024-05-09T12:39:53.331Z,46.97
2024-05-09T12:40:52.743Z,47.06
2024-05-09T12:41:52.516Z,47.09
2024-05-09T12:42:52.485Z,46.98
2024-05-09T14:42:03.458Z,47.88
2024-05-09T14:43:04.544Z,48.19
2024-05-09T14:44:04.470Z,48.38
2024-05-09T14:45:04.437Z,48.38
2024-05-09T14:46:04.457Z,48.26
2024-05-09T14:47:04.409Z,48.04
2024-05-09T14:48:04.575Z,47.92
2024-05-09T14:49:04.535Z,47.69
2024-05-09T14:50:06.864Z,47.49
2024-05-09T14:51:04.349Z,47.27
2024-05-09T14:52:04.392Z,47.05
2024-05-09T14:53:04.333Z,46.95
2024-05-09T14:54:04.292Z,46.83
2024-05-09T14:55:04.373Z,46.73